createdAt,value
2022-09-13T00:01:59.441Z,12.25
2022-09-13T00:04:25.827Z,12.19
2022-09-13T00:06:52.124Z,12.16
2022-09-13T00:09:18.498Z,12.12
2022-09-13T00:11:45.112Z,12.13
2022-09-13T00:14:11.411Z,12.09
2022-09-13T00:16:37.853Z,12.08
2022-09-13T00:19:04.573Z,12.01
2022-09-13T00:21:30.869Z,11.96
2022-09-13T00:23:57.313Z,11.87
2022-09-13T00:26:27.014Z,11.81
2022-09-13T00:28:58.430Z,11.80
2022-09-13T00:31:26.502Z,11.83
2022-09-13T00:33:53.275Z,11.85
2022-09-13T00:36:19.981Z,11.79
2022-09-13T00:38:46.587Z,11.76
2022-09-13T00:41:18.969Z,11.75
2022-09-13T00:43:57.454Z,11.79
2022-09-13T00:46:43.035Z,11.76
2022-09-13T00:49:15.613Z,11.72
2022-09-13T00:51:46.052Z,11.67
2022-09-13T00:54:16.007Z,11.69
2022-09-13T00:56:50.827Z,11.70
2022-09-13T00:59:24.952Z,11.68
2022-09-13T01:01:56.104Z,11.67
2022-09-13T01:04:26.551Z,11.68
2022-09-13T01:06:57.161Z,11.70
2022-09-13T01:09:23.910Z,11.68
2022-09-13T01:11:56.231Z,11.67
2022-09-13T01:14:23.954Z,11.63
2022-09-13T01:16:50.475Z,11.67
2022-09-13T01:19:17.283Z,11.61
2022-09-13T01:22:19.032Z,11.60
2022-09-13T01:25:19.538Z,11.59
2022-09-13T01:28:00.900Z,11.62
2022-09-13T01:30:37.877Z,11.60
2022-09-13T01:33:30.123Z,11.64
2022-09-13T01:36:15.031Z,11.64
2022-09-13T01:39:05.131Z,11.59
2022-09-13T01:41:58.731Z,11.63
2022-09-13T01:44:43.862Z,11.60
2022-09-13T01:47:25.858Z,11.67
2022-09-13T01:50:28.770Z,11.67
2022-09-13T01:53:17.837Z,11.64
2022-09-13T01:56:22.588Z,11.57
2022-09-13T01:59:02.439Z,11.53
2022-09-13T02:01:47.126Z,11.51
2022-09-13T02:04:30.764Z,11.55
2022-09-13T02:07:06.415Z,11.49
2022-09-13T02:09:38.504Z,11.46
2022-09-13T02:12:14.885Z,11.36
2022-09-13T02:14:44.283Z,11.28
2022-09-13T02:17:16.255Z,11.18
2022-09-13T02:19:52.876Z,11.12
2022-09-13T02:22:25.607Z,11.05
2022-09-13T02:24:56.779Z,11.04
2022-09-13T02:27:28.910Z,11.00
2022-09-13T02:30:02.617Z,11.03
2022-09-13T02:32:40.532Z,10.98
2022-09-13T02:35:12.093Z,10.95
2022-09-13T02:37:43.285Z,10.90
2022-09-13T02:40:15.054Z,10.88
2022-09-13T02:42:45.079Z,10.85
2022-09-13T02:45:15.482Z,10.89
2022-09-13T02:47:44.103Z,10.88
2022-09-13T02:50:29.366Z,10.89
2022-09-13T02:53:20.587Z,10.91
2022-09-13T02:56:05.353Z,10.93
2022-09-13T02:58:51.787Z,10.94
2022-09-13T03:01:18.537Z,10.91
2022-09-13T03:03:44.990Z,10.93
2022-09-13T03:06:11.520Z,10.92
2022-09-13T03:08:38.094Z,10.93
2022-09-13T03:11:36.302Z,10.93
2022-09-13T03:14:23.965Z,10.93
2022-09-13T03:17:07.804Z,10.93
2022-09-13T03:19:47.403Z,10.91
2022-09-13T03:22:27.784Z,10.91
2022-09-13T03:25:19.465Z,10.95
2022-09-13T03:27:55.213Z,10.95
2022-09-13T03:30:21.570Z,10.95
2022-09-13T03:33:07.220Z,10.96
2022-09-13T03:36:02.647Z,10.98
2022-09-13T03:38:38.305Z,10.98
2022-09-13T03:41:12.403Z,10.95
2022-09-13T03:43:44.576Z,10.98
2022-09-13T03:46:36.478Z,10.98
2022-09-13T03:49:07.185Z,10.95
2022-09-13T03:51:33.848Z,10.79
2022-09-13T03:54:04.796Z,10.65
2022-09-13T03:56:31.713Z,10.65
2022-09-13T03:58:58.280Z,10.59
2022-09-13T04:01:25.026Z,10.47
2022-09-13T04:03:56.351Z,10.43
2022-09-13T04:06:23.054Z,10.43
2022-09-13T04:08:49.567Z,10.42
2022-09-13T04:11:16.222Z,10.43
2022-09-13T04:13:42.642Z,10.40
2022-09-13T04:16:09.258Z,10.43
2022-09-13T04:18:35.741Z,10.45
2022-09-13T04:21:03.196Z,10.42
2022-09-13T04:23:29.834Z,10.36
2022-09-13T04:26:02.010Z,10.29
2022-09-13T04:28:28.653Z,10.23
2022-09-13T04:30:55.189Z,10.20
2022-09-13T04:33:21.664Z,10.17
2022-09-13T04:35:47.976Z,10.23
2022-09-13T04:38:14.383Z,10.30
2022-09-13T04:40:41.020Z,10.30
2022-09-13T04:43:07.733Z,10.26
2022-09-13T04:45:34.145Z,10.23
2022-09-13T04:48:00.862Z,10.23
2022-09-13T04:50:27.254Z,10.27
2022-09-13T04:52:56.418Z,10.28
2022-09-13T04:55:22.789Z,10.26
2022-09-13T04:57:53.462Z,10.33
2022-09-13T05:00:19.825Z,10.36
2022-09-13T05:02:46.136Z,10.46
2022-09-13T05:05:12.628Z,10.55
2022-09-13T05:07:38.949Z,10.55
2022-09-13T05:10:05.900Z,10.59
2022-09-13T05:12:32.238Z,10.68
2022-09-13T05:14:58.701Z,10.76
2022-09-13T05:17:25.058Z,10.84
2022-09-13T05:19:51.479Z,10.90
2022-09-13T05:22:17.819Z,10.89
2022-09-13T05:24:44.278Z,10.85
2022-09-13T05:27:10.621Z,10.86
2022-09-13T05:29:37.179Z,10.89
2022-09-13T05:32:03.778Z,10.84
2022-09-13T05:34:30.484Z,10.85
2022-09-13T05:36:56.844Z,10.88
2022-09-13T05:39:54.346Z,10.87
2022-09-13T05:42:09.796Z,11.00
2022-09-13T05:44:36.586Z,11.08
2022-09-13T05:47:03.118Z,11.14
2022-09-13T05:49:29.523Z,11.19
2022-09-13T05:51:55.856Z,11.25
2022-09-13T05:54:22.181Z,11.40
2022-09-13T05:56:48.610Z,11.47
2022-09-13T05:59:15.101Z,11.48
2022-09-13T06:01:42.787Z,11.50
2022-09-13T06:04:09.286Z,11.61
2022-09-13T06:06:35.630Z,11.69
2022-09-13T06:09:02.085Z,11.79
2022-09-13T06:11:28.489Z,11.82
2022-09-13T06:13:54.844Z,11.78
2022-09-13T06:16:21.898Z,11.84
2022-09-13T06:18:49.220Z,11.94
2022-09-13T06:21:23.787Z,12.19
2022-09-13T06:23:54.541Z,12.53
2022-09-13T06:26:26.827Z,12.79
2022-09-13T06:28:55.138Z,12.98
2022-09-13T06:31:24.121Z,13.09
2022-09-13T06:33:57.110Z,12.92
2022-09-13T06:36:23.759Z,12.97
2022-09-13T06:38:50.339Z,12.87
2022-09-13T06:41:19.548Z,12.86
2022-09-13T06:43:47.037Z,12.84
2022-09-13T06:46:16.052Z,12.83
2022-09-13T06:48:44.395Z,13.07
2022-09-13T06:51:16.192Z,13.00
2022-09-13T06:53:44.227Z,13.02
2022-09-13T06:56:19.269Z,13.08
2022-09-13T06:58:49.198Z,13.23
2022-09-13T07:01:33.328Z,13.59
2022-09-13T07:04:03.158Z,13.89
2022-09-13T07:06:32.243Z,14.01
2022-09-13T07:09:00.398Z,14.04
2022-09-13T07:11:30.802Z,13.95
2022-09-13T07:13:58.775Z,14.19
2022-09-13T07:16:28.207Z,14.57
2022-09-13T07:19:04.095Z,14.60
2022-09-13T07:21:30.453Z,15.05
2022-09-13T07:23:57.084Z,14.88
2022-09-13T07:26:24.265Z,15.34
2022-09-13T07:28:53.236Z,15.48
2022-09-13T07:31:28.280Z,15.34
2022-09-13T07:33:57.021Z,15.38
2022-09-13T07:36:24.661Z,15.27
2022-09-13T07:38:51.106Z,15.39
2022-09-13T07:41:20.578Z,15.35
2022-09-13T07:43:47.651Z,15.35
2022-09-13T07:46:16.731Z,15.33
2022-09-13T07:48:45.119Z,15.46
2022-09-13T07:51:17.324Z,15.45
2022-09-13T07:53:45.708Z,15.54
2022-09-13T07:56:15.056Z,16.07
2022-09-13T07:58:44.035Z,16.23
2022-09-13T08:01:17.767Z,16.24
2022-09-13T08:03:44.983Z,16.56
2022-09-13T08:06:11.412Z,17.03
2022-09-13T08:08:37.907Z,17.52
2022-09-13T08:11:06.460Z,18.00
2022-09-13T08:13:34.212Z,18.06
2022-09-13T08:16:05.867Z,18.58
2022-09-13T08:18:32.811Z,18.48
2022-09-13T08:21:00.446Z,18.87
2022-09-13T08:23:27.541Z,18.38
2022-09-13T08:25:53.912Z,18.45
2022-09-13T08:28:25.522Z,18.55
2022-09-13T08:30:54.176Z,18.95
2022-09-13T08:33:20.667Z,18.90
2022-09-13T08:35:53.587Z,19.28
2022-09-13T08:38:20.257Z,18.92
2022-09-13T08:40:53.726Z,18.91
2022-09-13T08:43:39.606Z,18.79
2022-09-13T08:46:12.615Z,18.84
2022-09-13T08:48:43.858Z,18.91
2022-09-13T08:51:24.459Z,18.82
2022-09-13T08:53:51.433Z,19.53
2022-09-13T08:56:26.438Z,19.90
2022-09-13T08:59:18.303Z,20.28
2022-09-13T09:02:07.921Z,20.39
2022-09-13T09:04:54.931Z,20.45
2022-09-13T09:07:26.141Z,20.52
2022-09-13T09:10:02.769Z,20.62
2022-09-13T09:12:53.166Z,20.98
2022-09-13T09:16:02.199Z,21.08
2022-09-13T09:18:41.951Z,21.37
2022-09-13T09:21:15.118Z,21.50
2022-09-13T09:23:52.375Z,21.90
2022-09-13T09:26:26.864Z,22.32
2022-09-13T09:28:58.714Z,22.50
2022-09-13T09:31:43.852Z,22.54
2022-09-13T09:34:51.880Z,22.66
2022-09-13T09:37:23.051Z,22.58
2022-09-13T09:39:50.292Z,22.99
2022-09-13T09:42:20.985Z,22.39
2022-09-13T09:44:52.366Z,22.66
2022-09-13T09:47:29.578Z,23.00
2022-09-13T09:50:03.816Z,23.24
2022-09-13T09:52:42.927Z,23.93
2022-09-13T09:55:24.461Z,23.84
2022-09-13T09:58:02.631Z,23.64
2022-09-13T10:00:32.447Z,24.26
2022-09-13T10:03:02.634Z,24.44
2022-09-13T10:05:29.035Z,24.58
2022-09-13T10:07:59.201Z,24.43
2022-09-13T10:10:35.385Z,24.52
2022-09-13T10:13:01.880Z,23.97
2022-09-13T10:15:31.741Z,23.77
2022-09-13T10:18:32.953Z,23.89
2022-09-13T10:21:22.764Z,23.85
2022-09-13T10:23:50.744Z,24.02
2022-09-13T10:26:20.629Z,24.25
2022-09-13T10:29:02.356Z,24.70
2022-09-13T10:31:34.330Z,24.00
2022-09-13T10:34:05.073Z,24.30
2022-09-13T10:36:52.419Z,25.07
2022-09-13T10:39:21.886Z,24.76
2022-09-13T10:42:05.449Z,24.64
2022-09-13T10:44:45.079Z,24.92
2022-09-13T10:47:22.090Z,25.08
2022-09-13T10:49:51.731Z,25.54
2022-09-13T10:52:26.910Z,26.00
2022-09-13T10:54:54.422Z,26.11
2022-09-13T10:57:34.936Z,26.63
2022-09-13T11:00:02.259Z,27.04
2022-09-13T11:02:41.883Z,26.90
2022-09-13T11:05:17.378Z,26.61
2022-09-13T11:07:52.538Z,25.99
2022-09-13T11:10:21.764Z,26.20
2022-09-13T11:13:30.795Z,26.40
2022-09-13T11:16:33.930Z,26.74
2022-09-13T11:19:19.051Z,27.16
2022-09-13T11:21:58.161Z,27.44
2022-09-13T11:24:39.629Z,27.25
2022-09-13T11:27:42.600Z,26.95
2022-09-13T11:30:20.216Z,27.14
2022-09-13T11:33:15.236Z,27.42
2022-09-13T11:36:15.073Z,26.30
2022-09-13T11:39:02.564Z,26.03
2022-09-13T11:41:34.906Z,26.15
2022-09-13T11:44:18.655Z,26.11
2022-09-13T11:46:58.514Z,26.57
2022-09-13T11:49:48.630Z,27.21
2022-09-13T11:52:41.063Z,27.33
2022-09-13T11:55:13.191Z,27.55
2022-09-13T11:57:46.210Z,27.62
2022-09-13T12:00:21.769Z,27.48
2022-09-13T12:03:11.097Z,27.37
2022-09-13T12:06:06.999Z,27.55
2022-09-13T12:08:42.482Z,27.33
2022-09-13T12:11:16.318Z,27.45
2022-09-13T12:14:07.611Z,27.39
2022-09-13T12:16:42.991Z,27.72
2022-09-13T12:19:22.691Z,27.85
2022-09-13T12:21:51.764Z,27.91
2022-09-13T12:24:56.626Z,28.47
2022-09-13T12:27:45.438Z,28.64
2022-09-13T12:30:21.220Z,27.48
2022-09-13T12:32:48.458Z,27.29
2022-09-13T12:35:35.655Z,27.52
2022-09-13T12:38:14.270Z,27.72
2022-09-13T12:41:08.556Z,27.75
2022-09-13T12:43:46.734Z,27.94
2022-09-13T12:46:28.367Z,28.44
2022-09-13T12:49:07.625Z,28.78
2022-09-13T12:51:56.183Z,28.58
2022-09-13T12:54:39.468Z,28.69
2022-09-13T12:57:29.999Z,28.32
2022-09-13T13:00:34.703Z,28.26
2022-09-13T13:03:09.209Z,28.69
2022-09-13T13:05:39.910Z,28.57
2022-09-13T13:08:21.319Z,28.88
2022-09-13T13:11:10.221Z,28.95
2022-09-13T13:13:43.836Z,28.84
2022-09-13T13:16:28.784Z,27.99
2022-09-13T13:19:00.436Z,28.34
2022-09-13T13:21:29.295Z,28.55
2022-09-13T13:24:17.407Z,28.73
2022-09-13T13:26:57.550Z,28.83
2022-09-13T13:29:25.016Z,29.16
2022-09-13T13:31:57.374Z,28.62
2022-09-13T13:34:23.704Z,28.54
2022-09-13T13:36:55.322Z,29.20
2022-09-13T13:39:24.637Z,29.08
2022-09-13T13:42:26.340Z,28.35
2022-09-13T13:44:52.679Z,29.11
2022-09-13T13:47:19.103Z,29.06
2022-09-13T13:49:51.432Z,29.08
2022-09-13T13:52:20.821Z,28.93
2022-09-13T13:54:47.167Z,28.72
2022-09-13T13:57:28.350Z,28.90
2022-09-13T14:00:16.432Z,29.00
2022-09-13T14:02:49.143Z,29.05
2022-09-13T14:05:44.081Z,28.29
2022-09-13T14:08:44.025Z,27.84
2022-09-13T14:11:26.565Z,27.82
2022-09-13T14:14:14.421Z,27.76
2022-09-13T14:16:43.595Z,27.80
2022-09-13T14:19:17.832Z,27.94
2022-09-13T14:21:44.517Z,27.83
2022-09-13T14:24:19.796Z,27.63
2022-09-13T14:26:51.936Z,27.86
2022-09-13T14:29:21.242Z,27.77
2022-09-13T14:31:55.191Z,28.36
2022-09-13T14:34:27.737Z,28.18
2022-09-13T14:36:57.365Z,28.34
2022-09-13T14:39:24.871Z,28.27
2022-09-13T14:41:59.464Z,28.25
2022-09-13T14:44:29.086Z,28.06
2022-09-13T14:47:01.742Z,28.21
2022-09-13T14:49:33.736Z,28.10
2022-09-13T14:52:05.271Z,28.22
2022-09-13T14:54:43.401Z,28.43
2022-09-13T14:57:28.210Z,28.53
2022-09-13T15:00:14.894Z,27.99
2022-09-13T15:02:48.504Z,27.70
2022-09-13T15:05:18.610Z,27.70
2022-09-13T15:07:45.572Z,27.98
2022-09-13T15:10:17.970Z,27.58
2022-09-13T15:15:19.289Z,27.26
2022-09-13T15:17:59.275Z,27.16
2022-09-13T15:20:29.050Z,27.21
2022-09-13T15:22:56.416Z,26.94
2022-09-13T15:25:30.032Z,26.93
2022-09-13T15:27:58.136Z,26.91
2022-09-13T15:30:31.466Z,26.83
2022-09-13T15:33:22.597Z,27.04
2022-09-13T15:35:49.137Z,26.96
2022-09-13T15:38:20.179Z,26.79
2022-09-13T15:40:56.930Z,26.50
2022-09-13T15:43:23.884Z,26.48
2022-09-13T15:45:50.608Z,26.59
2022-09-13T15:48:26.559Z,26.39
2022-09-13T15:51:11.360Z,26.44
2022-09-13T15:53:40.342Z,26.25
2022-09-13T15:56:08.005Z,26.26
2022-09-13T15:58:35.727Z,26.02
2022-09-13T16:01:02.766Z,26.15
2022-09-13T16:03:29.567Z,26.30
2022-09-13T16:05:56.472Z,25.98
2022-09-13T16:08:23.933Z,25.98
2022-09-13T16:10:50.900Z,25.80
2022-09-13T16:13:17.362Z,25.79
2022-09-13T16:15:43.794Z,25.70
2022-09-13T16:18:10.406Z,25.67
2022-09-13T16:20:36.968Z,25.60
2022-09-13T16:23:03.603Z,25.57
2022-09-13T16:25:30.081Z,25.61
2022-09-13T16:27:56.415Z,25.56
2022-09-13T16:30:22.974Z,25.43
2022-09-13T16:32:49.699Z,25.42
2022-09-13T16:35:16.065Z,25.23
2022-09-13T16:37:43.182Z,25.33
2022-09-13T16:40:10.654Z,25.23
2022-09-13T16:42:37.582Z,25.05
2022-09-13T16:45:04.528Z,24.82
2022-09-13T16:47:31.076Z,24.64
2022-09-13T16:49:57.430Z,24.57
2022-09-13T16:52:24.002Z,24.50
2022-09-13T16:54:50.415Z,24.38
2022-09-13T16:57:16.888Z,24.28
2022-09-13T16:59:43.302Z,24.23
2022-09-13T17:02:13.054Z,24.10
2022-09-13T17:04:39.957Z,24.03
2022-09-13T17:07:06.394Z,24.06
2022-09-13T17:09:35.735Z,23.98
2022-09-13T17:12:02.630Z,23.91
2022-09-13T17:14:29.370Z,23.93
2022-09-13T17:16:56.962Z,23.86
2022-09-13T17:19:27.498Z,23.86
2022-09-13T17:21:54.179Z,23.78
2022-09-13T17:24:20.493Z,23.60
2022-09-13T17:26:46.855Z,23.60
2022-09-13T17:29:14.696Z,23.53
2022-09-13T17:31:41.976Z,23.44
2022-09-13T17:34:09.057Z,23.35
2022-09-13T17:36:36.673Z,23.26
2022-09-13T17:39:03.281Z,23.18
2022-09-13T17:41:29.762Z,23.09
2022-09-13T17:43:56.385Z,22.99
2022-09-13T17:46:26.471Z,22.87
2022-09-13T17:48:54.812Z,22.77
2022-09-13T17:51:23.645Z,22.63
2022-09-13T17:53:54.173Z,22.57
2022-09-13T17:56:25.748Z,22.53
2022-09-13T17:58:52.809Z,22.60
2022-09-13T18:01:19.432Z,22.52
2022-09-13T18:03:46.160Z,22.38
2022-09-13T18:06:13.232Z,22.23
2022-09-13T18:08:40.196Z,21.88
2022-09-13T18:11:13.569Z,21.73
2022-09-13T18:13:42.042Z,21.60
2022-09-13T18:16:18.708Z,21.55
2022-09-13T18:18:48.700Z,21.51
2022-09-13T18:21:16.842Z,21.43
2022-09-13T18:23:43.278Z,21.34
2022-09-13T18:26:15.266Z,21.27
2022-09-13T18:28:42.474Z,21.22
2022-09-13T18:31:13.138Z,21.14
2022-09-13T18:33:39.590Z,20.95
2022-09-13T18:36:07.221Z,20.90
2022-09-13T18:38:40.253Z,20.84
2022-09-13T18:41:09.625Z,20.77
2022-09-13T18:43:38.697Z,20.72
2022-09-13T18:46:07.743Z,20.68
2022-09-13T18:48:42.454Z,20.56
2022-09-13T18:51:11.283Z,20.48
2022-09-13T18:53:38.176Z,20.47
2022-09-13T18:56:07.293Z,20.42
2022-09-13T18:58:36.771Z,20.36
2022-09-13T19:01:10.182Z,20.32
2022-09-13T19:03:37.497Z,20.17
2022-09-13T19:06:21.887Z,20.10
2022-09-13T19:08:49.961Z,20.05
2022-09-13T19:11:42.107Z,19.96
2022-09-13T19:14:04.335Z,19.87
2022-09-13T19:16:30.945Z,19.80
2022-09-13T19:18:57.518Z,19.74
2022-09-13T19:21:31.168Z,19.72
2022-09-13T19:24:00.995Z,19.70
2022-09-13T19:26:32.197Z,19.70
2022-09-13T19:29:01.250Z,19.71
2022-09-13T19:31:28.191Z,19.73
2022-09-13T19:33:56.036Z,19.66
2022-09-13T19:36:24.898Z,19.66
2022-09-13T19:38:52.518Z,19.63
2022-09-13T19:41:20.987Z,19.63
2022-09-13T19:43:47.445Z,19.59
2022-09-13T19:46:16.029Z,19.59
2022-09-13T19:48:44.793Z,19.56
2022-09-13T19:51:13.854Z,19.53
2022-09-13T19:54:04.119Z,19.42
2022-09-13T19:56:31.790Z,19.39
2022-09-13T19:58:59.191Z,19.39
2022-09-13T20:01:28.169Z,19.33
2022-09-13T20:03:59.959Z,19.23
2022-09-13T20:06:28.024Z,19.27
2022-09-13T20:08:59.057Z,19.13
2022-09-13T20:11:25.869Z,19.04
2022-09-13T20:13:52.625Z,18.97
2022-09-13T20:16:21.736Z,19.00
2022-09-13T20:18:48.468Z,18.98
2022-09-13T20:21:15.210Z,18.95
2022-09-13T20:23:42.824Z,18.90
2022-09-13T20:26:19.452Z,18.85
2022-09-13T20:28:47.309Z,18.84
2022-09-13T20:31:14.746Z,18.89
2022-09-13T20:33:42.140Z,18.85
2022-09-13T20:36:13.878Z,18.78
2022-09-13T20:38:41.675Z,18.65
2022-09-13T20:41:13.834Z,18.60
2022-09-13T20:43:40.740Z,18.60
2022-09-13T20:46:08.420Z,18.60
2022-09-13T20:48:35.059Z,18.57
2022-09-13T20:51:07.400Z,18.51
2022-09-13T20:53:33.735Z,18.43
2022-09-13T20:56:07.455Z,18.53
2022-09-13T20:58:35.124Z,18.54
2022-09-13T21:01:07.311Z,18.52
2022-09-13T21:03:38.607Z,18.46
2022-09-13T21:06:06.784Z,18.39
2022-09-13T21:08:33.470Z,18.45
2022-09-13T21:11:02.135Z,18.43
2022-09-13T21:13:39.647Z,18.44
2022-09-13T21:16:14.573Z,18.41
2022-09-13T21:18:41.504Z,18.38
2022-09-13T21:21:10.665Z,18.46
2022-09-13T21:23:37.326Z,18.46
2022-09-13T21:26:04.941Z,18.47
2022-09-13T21:28:32.368Z,18.39
2022-09-13T21:31:00.435Z,18.38
2022-09-13T21:33:27.198Z,18.38
2022-09-13T21:35:58.574Z,18.42
2022-09-13T21:38:30.344Z,18.41
2022-09-13T21:41:02.875Z,18.36
2022-09-13T21:43:29.657Z,18.34
2022-09-13T21:46:19.435Z,18.33
2022-09-13T21:48:48.196Z,18.30
2022-09-13T21:51:16.362Z,18.32
2022-09-13T21:53:44.079Z,18.30
2022-09-13T21:56:12.546Z,18.26
2022-09-13T21:58:39.436Z,18.30
2022-09-13T22:01:11.975Z,18.38
2022-09-13T22:03:41.107Z,18.32
2022-09-13T22:06:08.803Z,18.30
2022-09-13T22:08:37.075Z,18.28
2022-09-13T22:11:09.401Z,18.31
2022-09-13T22:13:37.724Z,18.32
2022-09-13T22:16:09.575Z,18.34
2022-09-13T22:18:36.584Z,18.29
2022-09-13T22:21:08.299Z,18.28
2022-09-13T22:23:35.765Z,18.32
2022-09-13T22:26:13.713Z,18.29
2022-09-13T22:28:40.101Z,18.30
2022-09-13T22:31:15.512Z,18.29
2022-09-13T22:33:42.858Z,18.24
2022-09-13T22:36:12.093Z,18.23
2022-09-13T22:38:39.956Z,18.23
2022-09-13T22:41:10.624Z,18.27
2022-09-13T22:43:38.288Z,18.51
2022-09-13T22:46:11.285Z,18.58
2022-09-13T22:48:38.164Z,18.70
2022-09-13T22:51:04.631Z,19.14
2022-09-13T22:53:32.654Z,19.10
2022-09-13T22:56:08.211Z,18.96
2022-09-13T22:58:34.605Z,18.93
2022-09-13T23:01:09.602Z,18.92
2022-09-13T23:03:37.865Z,18.89
2022-09-13T23:06:04.665Z,18.87
2022-09-13T23:08:31.912Z,18.86
2022-09-13T23:11:09.744Z,18.84
2022-09-13T23:13:36.194Z,18.77
2022-09-13T23:16:04.141Z,18.64
2022-09-13T23:18:32.370Z,18.61
2022-09-13T23:20:59.179Z,18.58
2022-09-13T23:23:26.579Z,18.49
2022-09-13T23:25:53.225Z,18.44
2022-09-13T23:28:19.734Z,18.35
2022-09-13T23:30:46.111Z,18.33
2022-09-13T23:33:12.631Z,18.28
2022-09-13T23:35:39.247Z,18.27
2022-09-13T23:38:05.641Z,18.19
2022-09-13T23:40:32.186Z,18.13
2022-09-13T23:42:58.628Z,18.12
2022-09-13T23:45:25.006Z,18.13
2022-09-13T23:47:52.531Z,18.16
2022-09-13T23:50:18.964Z,18.14
2022-09-13T23:52:45.264Z,18.13
2022-09-13T23:55:11.901Z,18.11
2022-09-13T23:57:38.479Z,18.13
